< < Back
Terminal Aerodrome Forecast


Current Version              Previous Versions:   1  2  3  4  5  6  7  8  9  

Terminal Aerodrome Forecast

839
FTUS42 KFFC 281945 AAA
TAFFTY
TAF AMD
KFTY 281945Z 2820/2918 09010KT P6SM SCT035 SCT045
     FM290000 11006KT P6SM SCT050 SCT250
     FM290900 10005KT 4SM BR BKN009
     FM291400 12010KT P6SM VCSH BKN015 OVC035 PROB30 2914/2918 6SM
      -SHRA BKN010=

Latest METAR

311
SAUS70 KWBC 291700 RRI
MTRFTY
METAR KFTY 291653Z 07010KT 10SM SCT024 SCT065 26/19 A3021 RMK AO2 SLP222
T02610194


USA.gov is the U.S. government's official web portal to all federal, state and local government web resources and services.